Time;durP1;ratioP1;P1;durP2;ratioP2;P2;SDS_P1;SDS_P2;PMS_P1;PMS_P2;Temp;Humidity;BMP_temperature;BMP_pressure;BME280_temperature;BME280_humidity;BME280_pressure;Samples;Min_cycle;Max_cycle;Signal;HPM_P1;HPM_P2
2022/01/03 00:00:32;;;;;;;4.28;1.30;;;11.80;99.90;;;;;;4972771;28;20034;-69
2022/01/03 00:03:02;;;;;;;4.18;1.17;;;11.80;99.90;;;;;;4973666;28;20027;-69
2022/01/03 00:05:28;;;;;;;4.93;1.40;;;11.70;99.90;;;;;;4972692;28;20027;-69
2022/01/03 00:07:54;;;;;;;3.67;1.48;;;11.70;99.90;;;;;;4955974;28;20289;-69
2022/01/03 00:10:20;;;;;;;5.38;1.55;;;11.70;99.90;;;;;;4972642;28;20027;-69
2022/01/03 00:12:47;;;;;;;3.17;1.25;;;11.70;99.90;;;;;;4972832;28;20031;-69
2022/01/03 00:15:15;;;;;;;3.60;1.17;;;11.80;99.90;;;;;;4955661;28;20081;-69
2022/01/03 00:17:41;;;;;;;4.40;1.23;;;11.90;99.90;;;;;;4972557;28;20640;-70
2022/01/03 00:20:10;;;;;;;3.90;1.20;;;11.90;99.90;;;;;;4973258;28;20412;-69
2022/01/03 00:23:02;;;;;;;5.55;1.30;;;11.90;99.90;;;;;;4972413;28;20034;-69
2022/01/03 00:25:29;;;;;;;3.15;1.10;;;12.00;99.90;;;;;;4972191;28;20346;-69
2022/01/03 00:28:21;;;;;;;6.45;1.38;;;12.00;99.90;;;;;;4972751;28;20500;-69
2022/01/03 00:30:56;;;;;;;4.47;1.10;;;12.10;99.90;;;;;;4972588;28;20488;-69
2022/01/03 00:33:23;;;;;;;5.13;1.38;;;12.00;99.90;;;;;;4972397;28;20023;-68
2022/01/03 00:35:53;;;;;;;4.28;1.35;;;12.10;99.90;;;;;;4973122;28;20063;-69
2022/01/03 00:38:21;;;;;;;5.47;1.30;;;12.00;99.90;;;;;;4972858;28;20110;-69
2022/01/03 00:40:48;;;;;;;7.75;1.25;;;12.00;99.90;;;;;;4955429;28;20380;-69
2022/01/03 00:43:16;;;;;;;3.20;1.20;;;12.00;99.90;;;;;;4972835;28;20124;-69
2022/01/03 00:45:42;;;;;;;4.82;1.50;;;12.00;99.90;;;;;;4972256;28;20019;-69
2022/01/03 00:48:09;;;;;;;3.25;1.25;;;12.10;99.90;;;;;;4973010;28;20472;-69
2022/01/03 00:50:35;;;;;;;4.70;1.50;;;12.10;99.90;;;;;;4972247;28;20038;-69
2022/01/03 00:53:00;;;;;;;4.68;1.25;;;12.10;99.90;;;;;;4972926;28;20035;-69
2022/01/03 00:55:26;;;;;;;6.63;1.27;;;12.10;99.90;;;;;;4971639;28;20027;-69
2022/01/03 00:58:01;;;;;;;3.70;1.17;;;12.10;99.90;;;;;;4972678;28;20026;-69
2022/01/03 01:00:30;;;;;;;4.22;1.70;;;12.10;99.90;;;;;;4973289;28;20027;-68
2022/01/03 01:03:10;;;;;;;5.63;1.40;;;12.10;99.90;;;;;;4977240;28;20049;-69
2022/01/03 01:05:38;;;;;;;;;;;12.00;99.90;;;;;;4976263;28;20030;-69
2022/01/03 01:08:05;;;;;;;5.00;1.00;;;12.00;99.90;;;;;;4976608;28;19910;-69
2022/01/03 01:10:33;;;;;;;4.90;1.98;;;12.00;99.90;;;;;;4975688;28;20499;-69
2022/01/03 01:13:01;;;;;;;8.85;1.58;;;11.90;99.90;;;;;;4976158;28;20039;-69
2022/01/03 01:15:27;;;;;;;4.45;1.40;;;12.00;99.90;;;;;;4975528;28;20033;-69
2022/01/03 01:17:54;;;;;;;3.75;0.80;;;11.90;99.90;;;;;;4975238;28;20027;-69
2022/01/03 01:20:21;;;;;;;5.93;1.20;;;11.80;99.90;;;;;;4976477;28;20121;-69
2022/01/03 01:22:49;;;;;;;6.30;1.52;;;11.70;99.90;;;;;;4976116;28;20035;-69
2022/01/03 01:27:49;;;;;;;5.80;1.40;;;11.60;99.90;;;;;;4975295;28;20027;-69
2022/01/03 01:30:17;;;;;;;3.30;1.42;;;11.50;99.90;;;;;;4976286;28;20070;-69
2022/01/03 01:33:03;;;;;;;4.97;1.17;;;11.50;99.90;;;;;;4975333;28;20185;-70
2022/01/03 01:35:48;;;;;;;4.70;1.55;;;11.60;99.90;;;;;;4975449;28;20114;-69
2022/01/03 01:38:30;;;;;;;4.72;1.45;;;11.60;99.90;;;;;;4976029;28;20536;-69
2022/01/03 01:40:57;;;;;;;4.20;1.60;;;11.60;99.90;;;;;;4976117;28;20190;-69
2022/01/03 01:43:36;;;;;;;3.90;1.20;;;11.60;99.90;;;;;;4975625;28;20022;-69
2022/01/03 01:46:16;;;;;;;4.30;1.48;;;11.70;99.90;;;;;;4975725;28;20480;-69
2022/01/03 01:48:45;;;;;;;6.03;1.52;;;11.60;99.90;;;;;;4975217;28;20282;-70
2022/01/03 01:51:12;;;;;;;7.32;1.85;;;11.60;99.90;;;;;;4975949;28;20034;-69
2022/01/03 01:53:47;;;;;;;5.72;1.48;;;11.50;99.90;;;;;;4975209;28;20041;-69
2022/01/03 01:56:27;;;;;;;6.32;1.30;;;11.50;99.90;;;;;;4975673;28;20041;-69
2022/01/03 01:59:08;;;;;;;9.75;1.90;;;11.50;99.90;;;;;;4975745;28;20038;-69
2022/01/03 02:01:48;;;;;;;6.50;1.40;;;11.60;99.90;;;;;;4975026;28;20033;-69
2022/01/03 02:04:23;;;;;;;;;;;11.60;99.90;;;;;;4975890;28;20472;-69
2022/01/03 02:06:50;;;;;;;3.85;1.27;;;11.60;99.90;;;;;;4975304;28;19917;-69
2022/01/03 02:09:20;;;;;;;4.13;1.33;;;11.70;99.90;;;;;;4975285;28;20037;-69
2022/01/03 02:11:53;;;;;;;;;;;11.70;99.90;;;;;;4974756;28;20460;-69
2022/01/03 02:14:20;;;;;;;7.95;1.73;;;11.70;99.90;;;;;;4975402;28;19961;-69
2022/01/03 02:16:47;;;;;;;3.13;1.00;;;11.80;99.90;;;;;;4974666;28;20487;-69
2022/01/03 02:19:13;;;;;;;4.75;0.95;;;11.80;99.90;;;;;;4975125;28;20018;-69
2022/01/03 02:21:40;;;;;;;6.72;1.42;;;11.70;99.90;;;;;;4974588;28;20376;-69
2022/01/03 02:24:06;;;;;;;4.22;1.40;;;11.70;99.90;;;;;;4970812;28;20035;-69
2022/01/03 02:26:33;;;;;;;7.45;1.63;;;11.60;99.90;;;;;;4954057;29;20387;-69
2022/01/03 02:28:59;;;;;;;8.15;1.85;;;11.60;99.90;;;;;;4955956;29;20035;-69
2022/01/03 02:31:24;;;;;;;2.92;1.00;;;11.50;99.90;;;;;;4955493;29;20437;-69
2022/01/03 02:33:51;;;;;;;5.18;1.55;;;11.50;99.90;;;;;;4955517;29;20066;-70
2022/01/03 02:36:17;;;;;;;5.68;1.65;;;11.50;99.90;;;;;;4955546;29;20118;-69
2022/01/03 02:38:43;;;;;;;4.18;1.00;;;11.50;99.90;;;;;;4954879;29;20035;-70
2022/01/03 02:41:09;;;;;;;8.82;1.58;;;11.50;99.90;;;;;;4955682;29;20034;-70
2022/01/03 02:43:35;;;;;;;5.47;1.25;;;11.50;99.90;;;;;;4954568;29;20039;-70
2022/01/03 02:46:01;;;;;;;5.20;1.33;;;11.50;99.90;;;;;;4955672;29;20039;-70
2022/01/03 02:48:27;;;;;;;5.78;1.17;;;11.50;99.90;;;;;;4954824;29;20495;-70
2022/01/03 02:50:53;;;;;;;5.90;1.27;;;11.50;99.90;;;;;;4955489;29;20031;-67
2022/01/03 02:53:20;;;;;;;4.00;1.20;;;11.40;99.90;;;;;;4955455;29;20083;-70
2022/01/03 02:55:46;;;;;;;5.50;1.70;;;11.40;99.90;;;;;;4953483;29;20098;-69
2022/01/03 02:58:12;;;;;;;6.97;1.45;;;11.50;99.90;;;;;;4954933;29;20035;-69
2022/01/03 03:00:50;;;;;;;4.15;1.20;;;11.40;99.90;;;;;;4955514;29;20035;-70
2022/01/03 03:03:18;;;;;;;5.68;1.30;;;11.50;99.90;;;;;;4955213;29;20556;-70
2022/01/03 03:05:44;;;;;;;3.45;1.30;;;11.40;99.90;;;;;;4954421;29;20472;-69
2022/01/03 03:08:11;;;;;;;7.57;1.30;;;11.40;99.90;;;;;;4955242;29;20035;-70
2022/01/03 03:10:37;;;;;;;7.88;1.38;;;11.30;99.90;;;;;;4954310;29;20023;-69
2022/01/03 03:13:03;;;;;;;3.83;1.33;;;11.20;99.90;;;;;;4954892;29;20091;-69
2022/01/03 03:15:29;;;;;;;8.68;1.65;;;11.10;99.90;;;;;;4954315;29;20500;-69
2022/01/03 03:17:55;;;;;;;10.52;1.75;;;11.00;99.90;;;;;;4955126;29;20460;-69
2022/01/03 03:20:26;;;;;;;4.65;1.40;;;10.90;99.90;;;;;;4954968;29;20032;-70
2022/01/03 03:22:53;;;;;;;7.47;1.63;;;10.80;99.90;;;;;;4954764;28;20019;-69
2022/01/03 03:25:31;;;;;;;3.40;1.30;;;10.70;99.90;;;;;;4954370;29;20078;-70
2022/01/03 03:28:02;;;;;;;4.65;1.60;;;10.60;99.90;;;;;;4954694;29;20392;-70
2022/01/03 03:30:33;;;;;;;4.65;1.23;;;10.50;99.90;;;;;;4953997;29;20031;-70
2022/01/03 03:33:08;;;;;;;6.88;1.05;;;10.40;99.90;;;;;;4954606;29;20086;-70
2022/01/03 03:35:34;;;;;;;7.32;1.48;;;10.40;99.90;;;;;;4953767;29;20066;-69
2022/01/03 03:38:00;;;;;;;5.47;1.75;;;10.40;99.90;;;;;;4954723;29;20031;-70
2022/01/03 03:40:25;;;;;;;6.25;1.67;;;10.40;99.90;;;;;;4954050;29;20033;-69
2022/01/03 03:42:52;;;;;;;5.07;1.40;;;10.30;99.90;;;;;;4968703;28;20086;-69
2022/01/03 03:45:18;;;;;;;4.65;1.42;;;10.30;99.90;;;;;;4954651;29;20066;-69
2022/01/03 03:47:44;;;;;;;5.38;1.42;;;10.30;99.90;;;;;;4953754;29;20087;-68
2022/01/03 03:50:10;;;;;;;3.47;1.30;;;10.20;99.90;;;;;;4954438;29;20035;-68
2022/01/03 03:52:37;;;;;;;6.80;1.65;;;10.10;99.90;;;;;;4953546;29;20038;-68
2022/01/03 03:55:03;;;;;;;4.63;1.50;;;10.00;99.90;;;;;;4954321;29;20035;-68
2022/01/03 03:57:29;;;;;;;6.50;1.23;;;10.00;99.90;;;;;;4953809;29;20360;-68
2022/01/03 03:59:54;;;;;;;4.53;1.20;;;9.90;99.90;;;;;;4953710;29;20035;-68
2022/01/03 04:02:20;;;;;;;7.03;1.30;;;9.90;99.90;;;;;;4954385;29;20027;-68
2022/01/03 04:04:46;;;;;;;7.93;1.30;;;9.90;99.90;;;;;;4953354;29;20077;-69
2022/01/03 04:07:11;;;;;;;6.78;1.50;;;9.90;99.90;;;;;;4954065;29;20031;-68
2022/01/03 04:09:37;;;;;;;7.65;1.00;;;9.90;99.90;;;;;;4953689;29;20049;-68
2022/01/03 04:12:03;;;;;;;4.95;1.15;;;10.00;99.90;;;;;;4953933;29;20028;-68
2022/01/03 04:14:29;;;;;;;7.22;1.45;;;9.90;99.90;;;;;;4953404;29;20043;-67
2022/01/03 04:16:54;;;;;;;14.15;1.70;;;10.00;99.90;;;;;;4954145;29;20377;-68
2022/01/03 04:19:20;;;;;;;5.25;1.17;;;10.00;99.90;;;;;;4954047;29;20504;-68
2022/01/03 04:21:46;;;;;;;6.25;1.00;;;9.90;99.90;;;;;;4953226;29;20863;-68
2022/01/03 04:24:12;;;;;;;5.03;1.10;;;9.90;99.90;;;;;;4965901;28;20372;-68
2022/01/03 04:26:39;;;;;;;5.57;0.90;;;9.80;99.90;;;;;;4972602;28;20484;-68
2022/01/03 04:29:05;;;;;;;4.43;1.17;;;9.80;99.90;;;;;;4972974;28;20038;-68
2022/01/03 04:31:31;;;;;;;5.82;1.85;;;9.60;99.90;;;;;;4973697;28;20038;-68
2022/01/03 04:33:58;;;;;;;4.07;1.00;;;9.60;99.90;;;;;;4977175;28;20114;-68
2022/01/03 04:36:24;;;;;;;6.35;1.08;;;9.50;99.90;;;;;;4975416;28;20147;-68
2022/01/03 04:38:50;;;;;;;5.53;1.02;;;9.50;99.90;;;;;;4973606;28;20701;-68
2022/01/03 04:41:16;;;;;;;10.30;1.52;;;9.40;99.90;;;;;;4972829;28;20465;-68
2022/01/03 04:43:41;;;;;;;4.40;1.10;;;9.50;99.90;;;;;;4972110;28;20039;-69
2022/01/03 04:46:08;;;;;;;6.28;1.42;;;9.60;99.90;;;;;;4972506;28;20488;-70
2022/01/03 04:48:39;;;;;;;5.95;1.20;;;9.70;99.90;;;;;;4972081;28;20496;-68
2022/01/03 04:51:05;;;;;;;6.50;1.40;;;9.70;99.90;;;;;;4973132;28;20460;-69
2022/01/03 04:53:33;;;;;;;2.85;0.80;;;9.60;99.90;;;;;;4972285;28;20031;-69
2022/01/03 04:55:59;;;;;;;8.73;1.58;;;9.50;99.90;;;;;;4973229;28;20038;-69
2022/01/03 04:58:25;;;;;;;9.27;1.45;;;9.50;99.90;;;;;;4972912;28;20023;-69
2022/01/03 05:00:51;;;;;;;10.35;1.58;;;9.40;99.90;;;;;;4971887;28;20030;-69
2022/01/03 05:03:17;;;;;;;6.43;1.45;;;9.20;99.90;;;;;;4972972;28;20030;-71
2022/01/03 05:05:43;;;;;;;8.48;1.70;;;9.10;99.90;;;;;;4971725;28;20390;-71
2022/01/03 05:08:08;;;;;;;8.77;2.00;;;9.00;99.90;;;;;;4972790;28;20114;-71
2022/01/03 05:10:34;;;;;;;5.32;1.05;;;8.90;99.90;;;;;;4972160;28;20029;-70
2022/01/03 05:13:01;;;;;;;7.68;1.30;;;9.00;99.90;;;;;;4972495;28;20118;-70
2022/01/03 05:15:26;;;;;;;12.82;1.83;;;9.00;99.90;;;;;;4972003;28;20038;-71
2022/01/03 05:17:52;;;;;;;10.20;1.73;;;9.00;99.90;;;;;;4970918;28;20022;-70
2022/01/03 05:20:18;;;;;;;13.75;2.50;;;8.80;99.90;;;;;;4971859;28;20033;-70
2022/01/03 05:22:44;;;;;;;10.85;2.00;;;8.70;99.90;;;;;;4970578;28;20349;-69
2022/01/03 05:25:10;;;;;;;6.28;1.20;;;8.60;99.90;;;;;;4967171;28;20027;-70
2022/01/03 05:27:37;;;;;;;10.18;1.60;;;8.50;99.90;;;;;;4970878;28;20472;-69
2022/01/03 05:30:04;;;;;;;9.07;1.63;;;8.40;99.90;;;;;;4971591;28;20087;-69
2022/01/03 05:32:30;;;;;;;16.67;2.45;;;8.30;99.90;;;;;;4971755;28;20030;-69
2022/01/03 05:34:56;;;;;;;12.05;1.85;;;8.30;99.90;;;;;;4971187;28;20487;-70
2022/01/03 05:37:21;;;;;;;5.90;1.20;;;8.30;99.90;;;;;;4971932;28;20039;-70
2022/01/03 05:39:47;;;;;;;9.43;1.42;;;8.20;99.90;;;;;;4970636;28;20033;-70
2022/01/03 05:42:13;;;;;;;8.55;1.65;;;8.20;99.90;;;;;;4971566;28;20155;-70
2022/01/03 05:44:38;;;;;;;8.98;1.45;;;8.10;99.90;;;;;;4970446;28;20035;-69
2022/01/03 05:47:05;;;;;;;5.95;1.10;;;8.10;99.90;;;;;;4972175;28;20034;-70
2022/01/03 05:49:30;;;;;;;5.97;1.48;;;8.10;99.90;;;;;;4974844;28;20101;-69
2022/01/03 05:51:56;;;;;;;12.27;2.25;;;8.00;99.90;;;;;;4974054;28;20027;-71
2022/01/03 05:54:22;;;;;;;8.73;2.00;;;8.00;99.90;;;;;;4974795;28;20460;-70
2022/01/03 05:56:47;;;;;;;6.38;1.80;;;8.00;99.90;;;;;;4973579;28;20399;-69
2022/01/03 05:59:13;;;;;;;7.95;1.70;;;8.00;99.90;;;;;;4974548;28;20460;-70
2022/01/03 06:01:40;;;;;;;9.95;2.42;;;8.00;99.90;;;;;;4973638;28;20034;-69
2022/01/03 06:07:08;;;;;;;7.88;1.80;;;8.00;99.90;;;;;;4969309;28;20047;-72
2022/01/03 06:09:34;;;;;;;10.77;1.83;;;8.00;99.90;;;;;;4973861;28;20490;-68
2022/01/03 06:12:00;;;;;;;12.05;2.10;;;8.00;99.90;;;;;;4974345;28;20037;-70
2022/01/03 06:14:26;;;;;;;8.20;1.80;;;8.00;99.90;;;;;;4934528;28;1165226;-69
2022/01/03 06:16:52;;;;;;;13.35;2.33;;;8.00;99.90;;;;;;4973894;28;20223;-69
2022/01/03 06:19:19;;;;;;;9.57;1.95;;;8.00;99.90;;;;;;4974972;28;20117;-68
2022/01/03 06:21:45;;;;;;;9.45;2.00;;;7.90;99.90;;;;;;4974647;28;20440;-69
2022/01/03 06:24:13;;;;;;;6.30;1.52;;;8.00;99.90;;;;;;4975204;28;20031;-69
2022/01/03 06:26:41;;;;;;;7.38;1.60;;;8.00;99.90;;;;;;4974536;28;20039;-68
2022/01/03 06:29:07;;;;;;;8.35;1.40;;;8.00;99.90;;;;;;4975271;28;20035;-69
2022/01/03 06:31:33;;;;;;;10.05;1.75;;;8.00;99.90;;;;;;4974852;28;20023;-69
2022/01/03 06:33:59;;;;;;;8.05;1.83;;;7.90;99.90;;;;;;4974925;28;20031;-69
2022/01/03 06:36:25;;;;;;;10.25;1.75;;;7.90;99.90;;;;;;4975275;28;20117;-70
2022/01/03 06:38:51;;;;;;;9.57;2.00;;;7.90;99.90;;;;;;4974165;28;21003;-69
2022/01/03 06:41:17;;;;;;;11.57;2.13;;;7.90;99.90;;;;;;4974283;28;20031;-69
2022/01/03 06:43:42;;;;;;;8.93;2.03;;;7.90;99.90;;;;;;4973700;28;20067;-69
2022/01/03 06:46:08;;;;;;;13.55;3.45;;;7.90;99.90;;;;;;4973353;28;20038;-69
2022/01/03 06:48:34;;;;;;;8.75;2.53;;;8.00;99.90;;;;;;4973565;28;20041;-69
2022/01/03 06:50:59;;;;;;;11.82;2.17;;;7.90;99.90;;;;;;4973384;28;20023;-69
2022/01/03 06:53:25;;;;;;;8.30;1.80;;;8.00;99.90;;;;;;4974471;28;20030;-69
2022/01/03 06:55:51;;;;;;;10.93;2.05;;;7.90;99.90;;;;;;4961321;28;20031;-69
2022/01/03 06:58:16;;;;;;;7.43;2.05;;;7.90;99.90;;;;;;4974041;28;20037;-69
2022/01/03 07:00:42;;;;;;;8.70;1.50;;;7.90;99.90;;;;;;4973988;28;20379;-69
2022/01/03 07:03:08;;;;;;;10.02;2.03;;;7.90;99.90;;;;;;4973798;28;20034;-69
2022/01/03 07:05:33;;;;;;;10.70;2.00;;;7.90;99.90;;;;;;4974079;28;20062;-70
2022/01/03 07:07:59;;;;;;;6.80;1.60;;;7.80;99.90;;;;;;4973573;28;20401;-70
2022/01/03 07:10:26;;;;;;;9.82;1.83;;;7.80;99.90;;;;;;4974420;28;20031;-69
2022/01/03 07:12:53;;;;;;;10.73;2.80;;;7.90;99.90;;;;;;4973213;28;20042;-69
2022/01/03 07:20:48;;;;;;;7.25;1.30;;;7.90;99.90;;;;;;4973294;28;20058;-69
2022/01/03 07:23:15;;;;;;;11.32;2.22;;;7.90;99.90;;;;;;4974147;28;20460;-69
2022/01/03 07:25:40;;;;;;;14.60;2.58;;;7.90;99.90;;;;;;4973368;28;20085;-69
2022/01/03 07:28:07;;;;;;;8.50;2.05;;;7.90;99.90;;;;;;4973014;28;20420;-70
2022/01/03 07:30:33;;;;;;;8.00;1.60;;;7.90;99.90;;;;;;4973339;28;20023;-73
2022/01/03 07:32:58;;;;;;;5.82;1.73;;;7.90;99.90;;;;;;4972740;28;20031;-73
2022/01/03 07:35:24;;;;;;;8.10;1.80;;;7.80;99.90;;;;;;4973520;28;20065;-71
2022/01/03 07:37:52;;;;;;;8.20;2.30;;;7.90;99.90;;;;;;4972906;28;20086;-71
2022/01/03 07:40:18;;;;;;;11.68;2.00;;;7.90;99.90;;;;;;4973948;28;20452;-74
2022/01/03 07:42:44;;;;;;;11.32;1.88;;;7.80;99.90;;;;;;4972808;28;20031;-70
2022/01/03 07:45:10;;;;;;;9.73;2.13;;;7.80;99.90;;;;;;4973433;28;20110;-70
2022/01/03 07:47:36;;;;;;;13.07;2.42;;;7.80;99.90;;;;;;4972462;28;20035;-69
2022/01/03 07:50:03;;;;;;;9.07;1.90;;;7.80;99.90;;;;;;4972862;28;20081;-71
2022/01/03 07:52:29;;;;;;;12.90;3.05;;;7.80;99.90;;;;;;4972809;28;20035;-70
2022/01/03 07:54:55;;;;;;;20.17;3.22;;;7.80;99.90;;;;;;4971998;28;20030;-72
2022/01/03 07:57:21;;;;;;;11.30;2.13;;;7.80;99.90;;;;;;4973184;28;20031;-71
2022/01/03 07:59:46;;;;;;;12.45;2.95;;;7.80;99.90;;;;;;4971940;28;20033;-69
2022/01/03 08:02:12;;;;;;;13.57;2.95;;;7.80;99.90;;;;;;4972872;28;20026;-71
2022/01/03 08:04:38;;;;;;;9.48;2.58;;;7.70;99.90;;;;;;4954737;28;20606;-70
2022/01/03 08:07:04;;;;;;;9.05;2.67;;;7.70;99.90;;;;;;4972645;28;20063;-70
2022/01/03 08:09:30;;;;;;;11.65;3.05;;;7.80;99.90;;;;;;4972567;28;20077;-69
2022/01/03 08:11:56;;;;;;;10.18;2.67;;;7.70;99.90;;;;;;4971935;28;20039;-69
2022/01/03 08:14:21;;;;;;;10.88;2.50;;;7.80;99.90;;;;;;4971915;28;20057;-69
2022/01/03 08:16:47;;;;;;;11.00;2.50;;;7.80;99.90;;;;;;4971214;28;20421;-69
2022/01/03 08:19:13;;;;;;;15.07;2.15;;;7.80;99.90;;;;;;4972316;28;20038;-70
2022/01/03 08:21:38;;;;;;;12.80;3.00;;;7.80;99.90;;;;;;4971055;28;20065;-70
2022/01/03 08:24:04;;;;;;;11.43;2.25;;;7.80;99.90;;;;;;4973349;28;20038;-72
2022/01/03 08:26:33;;;;;;;11.00;2.10;;;7.80;99.90;;;;;;4973017;28;20126;-72
2022/01/03 08:28:59;;;;;;;12.02;2.30;;;7.80;99.90;;;;;;4973476;28;20605;-70
2022/01/03 08:31:25;;;;;;;11.02;2.47;;;7.80;99.90;;;;;;4971960;28;20023;-71
2022/01/03 08:33:53;;;;;;;10.02;2.17;;;7.80;99.90;;;;;;4952656;28;20158;-70
2022/01/03 08:36:19;;;;;;;10.68;2.60;;;7.90;99.90;;;;;;4971009;28;20058;-70
2022/01/03 08:38:45;;;;;;;11.68;2.40;;;7.90;99.90;;;;;;4962594;28;20027;-71
2022/01/03 08:41:11;;;;;;;13.55;2.42;;;7.90;99.90;;;;;;4972274;28;20037;-71
2022/01/03 08:43:37;;;;;;;14.77;2.47;;;7.90;99.90;;;;;;4970121;28;20039;-70
2022/01/03 08:46:03;;;;;;;10.05;2.38;;;8.00;99.90;;;;;;4953891;28;20041;-70
2022/01/03 08:48:29;;;;;;;6.95;2.08;;;8.00;99.90;;;;;;4971915;28;20391;-70
2022/01/03 08:50:55;;;;;;;7.32;3.03;;;8.10;99.90;;;;;;4971202;28;20121;-70
2022/01/03 08:53:26;;;;;;;13.90;3.28;;;8.10;99.90;;;;;;4970992;28;20480;-71
2022/01/03 08:55:55;;;;;;;12.43;3.35;;;8.20;99.90;;;;;;4971360;28;20468;-71
2022/01/03 08:58:22;;;;;;;14.63;3.53;;;8.20;99.90;;;;;;4971885;28;20035;-71
2022/01/03 09:00:48;;;;;;;12.20;2.85;;;8.30;99.90;;;;;;4971110;28;20027;-71
2022/01/03 09:03:14;;;;;;;13.02;2.60;;;8.40;99.90;;;;;;4971351;28;20396;-71
2022/01/03 09:05:40;;;;;;;11.13;3.33;;;8.40;99.90;;;;;;4968432;28;20039;-71
2022/01/03 09:08:06;;;;;;;11.65;2.72;;;8.50;99.90;;;;;;4971826;28;20038;-71
2022/01/03 09:10:32;;;;;;;12.20;3.50;;;8.50;99.90;;;;;;4972192;28;20082;-71
2022/01/03 09:12:57;;;;;;;12.98;3.20;;;8.50;99.90;;;;;;4953639;28;20465;-71
2022/01/03 09:15:23;;;;;;;8.60;3.13;;;8.60;99.90;;;;;;4969284;28;20047;-69
2022/01/03 09:17:49;;;;;;;16.48;4.50;;;8.60;99.90;;;;;;4971297;28;20477;-69
2022/01/03 09:20:15;;;;;;;13.82;3.58;;;8.60;99.90;;;;;;4969468;28;20031;-70
2022/01/03 09:22:45;;;;;;;12.40;3.78;;;8.70;99.90;;;;;;4973501;28;20122;-70
2022/01/03 09:30:33;;;;;;;13.05;4.00;;;8.70;99.90;;;;;;4956075;29;20119;-71
2022/01/03 09:32:59;;;;;;;9.20;3.15;;;8.80;99.90;;;;;;4962960;28;20023;-69
2022/01/03 09:35:24;;;;;;;10.30;3.13;;;8.80;99.90;;;;;;4976381;28;20023;-69
2022/01/03 09:37:50;;;;;;;10.05;2.88;;;8.90;99.90;;;;;;4973656;28;20062;-69
2022/01/03 09:40:16;;;;;;;11.48;2.92;;;8.90;99.90;;;;;;4975044;28;20357;-69
2022/01/03 09:42:47;;;;;;;12.23;3.60;;;9.00;99.90;;;;;;4971483;28;20130;-69
2022/01/03 09:45:13;;;;;;;16.25;3.75;;;9.00;99.90;;;;;;4972527;28;20031;-69
2022/01/03 09:47:44;;;;;;;12.07;2.55;;;9.10;99.90;;;;;;4981886;28;20058;-70
2022/01/03 09:50:17;;;;;;;6.13;1.98;;;9.20;99.90;;;;;;4979610;28;20023;-69
2022/01/03 09:52:46;;;;;;;10.88;1.25;;;9.20;99.90;;;;;;4974349;28;20056;-70
2022/01/03 09:55:12;;;;;;;6.50;1.35;;;9.30;99.90;;;;;;4975032;28;20522;-69
2022/01/03 09:57:39;;;;;;;6.22;1.75;;;9.40;99.90;;;;;;4974705;28;20491;-69
2022/01/03 10:00:06;;;;;;;8.32;1.60;;;9.40;99.90;;;;;;4973632;28;20468;-70
2022/01/03 10:02:31;;;;;;;6.97;1.40;;;9.50;99.90;;;;;;4978343;28;20027;-70
2022/01/03 10:04:59;;;;;;;6.60;1.65;;;9.70;99.90;;;;;;4973777;28;20033;-69
2022/01/03 10:07:25;;;;;;;4.43;1.40;;;9.80;99.90;;;;;;4974814;28;20023;-70
2022/01/03 10:09:51;;;;;;;10.02;1.70;;;10.00;99.90;;;;;;4973798;28;20045;-70
2022/01/03 10:12:18;;;;;;;12.50;1.75;;;10.10;99.90;;;;;;4974813;28;20081;-70
2022/01/03 10:14:43;;;;;;;9.43;2.05;;;10.10;99.90;;;;;;4966251;28;20540;-70
2022/01/03 10:17:10;;;;;;;7.68;1.60;;;10.20;99.90;;;;;;4975096;28;20118;-70
2022/01/03 10:19:51;;;;;;;9.52;1.60;;;10.30;99.90;;;;;;4974087;28;20349;-70
2022/01/03 10:22:25;;;;;;;6.93;1.30;;;10.40;99.90;;;;;;4973797;28;20114;-70
2022/01/03 10:24:51;;;;;;;8.77;1.90;;;10.50;99.90;;;;;;4972831;28;20468;-70
2022/01/03 10:27:18;;;;;;;4.32;1.33;;;10.50;99.90;;;;;;4956678;28;20456;-71
2022/01/03 10:29:56;;;;;;;8.40;1.75;;;10.50;99.90;;;;;;4973683;28;20137;-70
2022/01/03 10:32:30;;;;;;;4.43;1.10;;;10.50;99.90;;;;;;4970842;28;20026;-70
2022/01/03 10:35:16;;;;;;;11.55;1.67;;;10.60;99.90;;;;;;4973616;28;20468;-70
2022/01/03 10:37:42;;;;;;;9.80;2.10;;;10.70;99.90;;;;;;4974433;28;20038;-70
2022/01/03 10:40:29;;;;;;;5.95;1.33;;;10.70;99.90;;;;;;4974129;28;20074;-70
2022/01/03 10:43:16;;;;;;;8.05;1.45;;;10.80;99.90;;;;;;4962543;28;20074;-70
2022/01/03 10:45:43;;;;;;;4.72;1.33;;;10.90;99.90;;;;;;4956672;28;20396;-70
2022/01/03 10:48:33;;;;;;;8.90;1.80;;;10.90;99.90;;;;;;4974065;28;20030;-70
2022/01/03 10:51:01;;;;;;;6.10;1.42;;;10.90;99.90;;;;;;4966172;28;20027;-70
2022/01/03 10:53:40;;;;;;;7.50;1.70;;;10.90;99.90;;;;;;4957027;28;20186;-70
2022/01/03 10:56:29;;;;;;;6.85;1.50;;;11.00;99.90;;;;;;4956295;28;20074;-70
2022/01/03 10:59:03;;;;;;;9.25;1.45;;;11.00;99.90;;;;;;4945443;28;20123;-70
2022/01/03 11:01:32;;;;;;;7.13;1.52;;;11.10;99.90;;;;;;4974678;28;20035;-70
2022/01/03 11:04:01;;;;;;;7.25;1.55;;;11.20;99.90;;;;;;4974915;28;20054;-70
2022/01/03 11:11:46;;;;;;;8.77;1.50;;;11.10;99.90;;;;;;4966989;28;20037;-70
2022/01/03 11:14:32;;;;;;;7.35;1.55;;;11.20;99.90;;;;;;4967428;28;20062;-70
2022/01/03 11:16:59;;;;;;;7.70;1.38;;;11.30;99.90;;;;;;4973493;28;20121;-70
2022/01/03 11:19:39;;;;;;;8.82;2.00;;;11.40;99.90;;;;;;4972506;28;20117;-70
2022/01/03 11:22:05;;;;;;;9.13;1.63;;;11.40;99.90;;;;;;4972600;28;20456;-70
2022/01/03 11:24:31;;;;;;;6.55;1.40;;;11.50;99.90;;;;;;4973662;28;20070;-70
2022/01/03 11:26:57;;;;;;;6.50;1.50;;;11.60;99.90;;;;;;4971541;28;20066;-70
2022/01/03 11:29:27;;;;;;;4.70;1.30;;;11.70;99.90;;;;;;4973950;28;20039;-69
2022/01/03 11:31:54;;;;;;;7.67;1.50;;;11.80;99.90;;;;;;4972328;28;20034;-69
2022/01/03 11:34:25;;;;;;;9.00;1.40;;;11.80;99.90;;;;;;4973251;28;20031;-69
2022/01/03 11:36:51;;;;;;;7.18;1.55;;;11.90;99.90;;;;;;4973042;28;20491;-69
2022/01/03 11:39:20;;;;;;;4.47;1.40;;;11.90;99.90;;;;;;4973288;28;20122;-69
2022/01/03 11:41:46;;;;;;;7.78;1.77;;;12.00;99.90;;;;;;4974762;28;20507;-70
2022/01/03 11:44:15;;;;;;;8.35;2.15;;;12.00;99.90;;;;;;4990701;28;20034;-69
2022/01/03 11:46:45;;;;;;;9.80;1.42;;;12.10;99.90;;;;;;4992633;28;20042;-70
2022/01/03 11:49:11;;;;;;;7.25;1.58;;;12.10;99.90;;;;;;4987625;28;20060;-73
2022/01/03 11:51:38;;;;;;;4.28;1.00;;;12.10;99.90;;;;;;4974095;28;20497;-71
2022/01/03 11:54:05;;;;;;;9.20;1.75;;;12.10;99.90;;;;;;4972298;28;20030;-72
2022/01/03 11:56:34;;;;;;;6.97;1.45;;;12.20;99.90;;;;;;4973156;28;20760;-76
2022/01/03 12:04:28;;;;;;;6.38;1.30;;;12.30;99.90;;;;;;4973402;28;20130;-76
2022/01/03 12:07:05;;;;;;;7.95;1.20;;;12.40;99.90;;;;;;4972406;28;20030;-73
2022/01/03 12:09:32;;;;;;;7.40;1.40;;;12.40;99.90;;;;;;4973363;28;20108;-72
2022/01/03 12:11:58;;;;;;;8.95;1.42;;;12.40;99.90;;;;;;4972222;28;20035;-74
2022/01/03 12:14:47;;;;;;;4.75;1.88;;;12.50;99.90;;;;;;4964676;28;20412;-71
2022/01/03 12:17:14;;;;;;;4.05;1.00;;;12.50;99.90;;;;;;4972115;28;20027;-71
2022/01/03 12:19:42;;;;;;;3.03;1.23;;;12.40;98.00;;;;;;4971678;28;20392;-71
2022/01/03 12:22:11;;;;;;;5.00;1.00;;;12.50;97.80;;;;;;4972144;28;20120;-71
2022/01/03 12:25:05;;;;;;;4.43;1.00;;;12.50;96.90;;;;;;4972583;28;20093;-71
2022/01/03 12:27:39;;;;;;;7.05;1.00;;;12.50;97.60;;;;;;4970639;28;20607;-71
2022/01/03 12:30:14;;;;;;;4.88;0.95;;;12.50;98.20;;;;;;4972129;28;20579;-71
2022/01/03 12:32:41;;;;;;;8.70;1.70;;;12.40;99.00;;;;;;4971864;28;20058;-71
2022/01/03 12:35:22;;;;;;;5.18;1.02;;;12.40;99.00;;;;;;4971657;28;20498;-71
2022/01/03 12:37:54;;;;;;;4.00;1.17;;;12.40;99.10;;;;;;4972333;28;20062;-71
2022/01/03 12:40:34;;;;;;;4.53;1.63;;;12.40;99.70;;;;;;4972154;28;20033;-72
2022/01/03 12:43:00;;;;;;;;;;;12.40;99.10;;;;;;4972231;28;20034;-71
2022/01/03 12:45:28;;;;;;;4.60;1.30;;;12.30;99.60;;;;;;4972566;28;19914;-71
2022/01/03 12:47:54;;;;;;;5.57;1.23;;;12.30;99.70;;;;;;4971365;28;20388;-71
2022/01/03 12:50:21;;;;;;;4.63;1.48;;;12.30;99.70;;;;;;4971868;28;20035;-71
2022/01/03 12:52:48;;;;;;;3.58;1.08;;;12.30;99.90;;;;;;4972653;28;20117;-71
2022/01/03 12:55:38;;;;;;;5.47;1.30;;;12.30;99.90;;;;;;4971282;28;20035;-71
2022/01/03 12:58:24;;;;;;;9.10;1.23;;;12.30;99.90;;;;;;4974407;28;20042;-72
2022/01/03 13:01:14;;;;;;;8.15;1.20;;;12.30;99.90;;;;;;4976119;28;20030;-72
2022/01/03 13:03:39;;;;;;;5.47;1.10;;;12.30;99.90;;;;;;4974834;28;20077;-71
2022/01/03 13:06:11;;;;;;;9.00;1.40;;;12.20;99.90;;;;;;4975592;28;20101;-71
2022/01/03 13:08:41;;;;;;;3.40;1.05;;;12.20;99.90;;;;;;4976316;28;20058;-72
2022/01/03 13:11:11;;;;;;;7.25;1.73;;;12.10;99.90;;;;;;4975754;28;20035;-72
2022/01/03 13:13:38;;;;;;;6.32;1.23;;;12.10;99.90;;;;;;4976266;28;20051;-72
2022/01/03 13:16:23;;;;;;;2.83;1.10;;;12.10;99.90;;;;;;4975162;28;20034;-70
2022/01/03 13:18:51;;;;;;;7.97;1.48;;;12.10;99.90;;;;;;4976317;28;20023;-70
2022/01/03 13:21:18;;;;;;;4.55;1.27;;;12.10;99.90;;;;;;4975078;28;20150;-70
2022/01/03 13:24:00;;;;;;;4.18;1.73;;;12.10;99.90;;;;;;4976422;28;20086;-70